Time;durP1;ratioP1;P1;durP2;ratioP2;P2;SDS_P1;SDS_P2;PMS_P1;PMS_P2;Temp;Humidity;BMP_temperature;BMP_pressure;BME280_temperature;BME280_humidity;BME280_pressure;Samples;Min_cycle;Max_cycle;Signal;HPM_P1;HPM_P2
2022/06/23 00:01:25;;;;;;;;;16.33;16.33;;;;;22.94;72.95;100750.34;5071160;28;45175;-67
2022/06/23 00:03:54;;;;;;;;;18.33;16.00;;;;;22.89;72.85;100743.53;5069645;28;45359;-67
2022/06/23 00:06:42;;;;;;;;;21.25;20.00;;;;;22.95;72.84;100739.00;5066084;28;45287;-66
2022/06/23 00:09:33;;;;;;;;;17.00;17.00;;;;;22.89;73.38;100739.91;5058815;28;45537;-67
2022/06/23 00:11:59;;;;;;;;;19.67;19.67;;;;;22.88;73.75;100757.63;5072480;28;45447;-66
2022/06/23 00:14:26;;;;;;;;;21.75;21.75;;;;;22.71;76.24;100759.25;5067251;28;45346;-66
2022/06/23 00:16:52;;;;;;;;;21.25;20.25;;;;;22.68;79.28;100768.00;5071971;28;45367;-67
2022/06/23 00:19:17;;;;;;;;;22.00;22.00;;;;;22.66;80.14;100768.22;5069248;28;45571;-66
2022/06/23 00:21:53;;;;;;;;;27.25;22.50;;;;;22.64;87.99;100758.47;5072116;28;45283;-67
2022/06/23 00:24:25;;;;;;;;;29.50;26.00;;;;;23.75;100.00;101113.44;5067560;28;45258;-66
2022/06/23 00:26:53;;;;;;;;;41.25;32.00;;;;;29.26;100.00;100769.91;5073181;28;45476;-66
2022/06/23 00:29:23;;;;;;;;;37.25;32.00;;;;;34.86;100.00;101142.81;5065416;28;47059;-66
2022/06/23 00:32:17;;;;;;;;;68.75;43.75;;;;;50.81;100.00;100783.44;5070188;28;45345;-66
2022/06/23 00:34:55;;;;;;;;;35.75;33.75;;;;;36.94;100.00;100749.47;5055351;28;45382;-65
2022/06/23 00:37:21;;;;;;;;;25.75;23.75;;;;;29.89;100.00;100744.69;5072663;28;45676;-65
2022/06/23 00:39:53;;;;;;;;;30.00;29.25;;;;;28.52;100.00;100735.50;5064946;28;47239;-65
2022/06/23 00:42:45;;;;;;;;;27.50;24.50;;;;;28.34;100.00;100731.19;5084551;27;45479;-66
2022/06/23 00:45:10;;;;;;;;;25.25;25.25;;;;;27.69;100.00;100732.13;5064851;28;45509;-66
2022/06/23 00:47:38;;;;;;;;;33.75;29.75;;;;;27.48;100.00;100738.56;5073451;28;45304;-66
2022/06/23 00:50:22;;;;;;;;;29.75;29.00;;;;;26.86;100.00;100730.44;5064873;28;46487;-66
2022/06/23 00:52:56;;;;;;;;;29.25;28.25;;;;;26.83;100.00;100733.72;5071715;27;45385;-66
2022/06/23 00:55:34;;;;;;;;;35.00;31.75;;;;;26.81;100.00;100730.38;5066972;28;45316;-66
2022/06/23 00:58:05;;;;;;;;;30.75;30.50;;;;;26.80;100.00;100723.09;5058858;28;45246;-66
2022/06/23 01:00:36;;;;;;;;;28.75;27.75;;;;;26.67;100.00;100712.28;5066994;28;46564;-65
2022/06/23 01:03:17;;;;;;;;;35.00;31.25;;;;;26.47;100.00;100711.97;5064108;27;45460;-65
2022/06/23 01:05:53;;;;;;;;;32.50;31.00;;;;;26.51;100.00;100722.38;5067121;28;45491;-66
2022/06/23 01:08:32;;;;;;;;;31.75;29.50;;;;;26.67;100.00;100726.22;5067445;28;45472;-65
2022/06/23 01:11:21;;;;;;;;;31.75;30.25;;;;;26.60;100.00;100719.97;5064445;28;46123;-65
2022/06/23 01:13:49;;;;;;;;;35.75;32.50;;;;;26.51;100.00;100713.16;5072104;28;45415;-66
2022/06/23 01:16:32;;;;;;;;;28.50;27.50;;;;;26.50;100.00;100708.69;5068966;28;45528;-66
2022/06/23 01:19:02;;;;;;;;;31.75;30.75;;;;;26.52;100.00;100703.72;5054292;28;45300;-66
2022/06/23 01:21:40;;;;;;;;;31.75;27.50;;;;;26.54;100.00;100704.28;5068945;28;45461;-66
2022/06/23 01:24:36;;;;;;;;;28.00;26.50;;;;;26.55;100.00;100705.97;5056910;28;45456;-66
2022/06/23 01:27:21;;;;;;;;;29.75;26.25;;;;;26.57;100.00;100701.84;5072468;28;45491;-65
2022/06/23 01:29:51;;;;;;;;;32.75;29.50;;;;;26.55;100.00;100695.66;5063577;28;45431;-64
2022/06/23 01:32:32;;;;;;;;;30.50;30.50;;;;;26.59;100.00;100704.38;5070451;28;45489;-65
2022/06/23 01:35:03;;;;;;;;;28.50;24.25;;;;;26.65;100.00;100698.63;5063697;28;45451;-66
2022/06/23 01:37:34;;;;;;;;;34.50;30.25;;;;;26.45;100.00;100692.72;5068161;28;45322;-65
2022/06/23 01:40:09;;;;;;;;;27.25;24.75;;;;;26.47;100.00;100698.03;5066428;28;45420;-66
2022/06/23 01:42:40;;;;;;;;;28.25;24.00;;;;;26.65;100.00;100695.84;5073484;27;45368;-66
2022/06/23 01:45:19;;;;;;;;;31.50;28.50;;;;;26.66;100.00;100693.91;5065480;28;45354;-65
2022/06/23 01:47:54;;;;;;;;;28.00;28.00;;;;;26.68;100.00;100688.88;5072182;28;45293;-65
2022/06/23 01:50:58;;;;;;;;;31.75;30.50;;;;;26.60;100.00;100680.97;5065795;28;45564;-65
2022/06/23 01:53:27;;;;;;;;;30.50;29.75;;;;;26.70;100.00;100678.34;5059109;28;45314;-65
2022/06/23 01:56:03;;;;;;;;;34.25;31.75;;;;;26.79;100.00;100687.09;5063666;28;45362;-65
2022/06/23 01:58:47;;;;;;;;;31.50;30.00;;;;;26.74;99.40;100680.34;5066444;28;45316;-66
2022/06/23 02:01:19;;;;;;;;;31.50;28.25;;;;;26.52;99.17;100682.22;5068907;28;45557;-65
2022/06/23 02:03:50;;;;;;;;;32.75;29.50;;;;;26.50;100.00;100684.44;5066187;28;45440;-66
2022/06/23 02:06:21;;;;;;;;;30.75;29.50;;;;;26.37;100.00;100679.22;5072155;28;45303;-66
2022/06/23 02:08:47;;;;;;;;;35.00;31.50;;;;;26.27;100.00;100682.69;5067020;28;45468;-65
2022/06/23 02:11:31;;;;;;;;;27.75;27.75;;;;;26.35;100.00;100682.25;5068606;28;45579;-65
2022/06/23 02:14:13;;;;;;;;;39.25;33.50;;;;;26.33;99.44;100684.44;5056662;28;45395;-65
2022/06/23 02:16:47;;;;;;;;;34.00;31.75;;;;;26.16;99.45;100686.34;5066773;28;45365;-66
2022/06/23 02:19:28;;;;;;;;;32.00;29.00;;;;;26.26;100.00;100682.94;5066219;27;45354;-66
2022/06/23 02:22:08;;;;;;;;;35.00;33.25;;;;;26.31;100.00;100683.84;5071410;28;45326;-66
2022/06/23 02:24:59;;;;;;;;;39.25;34.75;;;;;26.46;100.00;100687.97;5064794;28;46201;-65
2022/06/23 02:27:29;;;;;;;;;34.50;33.50;;;;;26.42;100.00;100686.81;5067595;28;45461;-65
2022/06/23 02:30:00;;;;;;;;;34.00;29.50;;;;;26.53;98.51;100683.06;5062285;27;45396;-65
2022/06/23 02:33:04;;;;;;;;;32.75;29.75;;;;;26.51;97.86;100680.56;5072958;28;45407;-65
2022/06/23 02:35:56;;;;;;;;;40.00;34.00;;;;;26.60;97.15;100692.94;5058304;28;46465;-67
2022/06/23 02:38:24;;;;;;;;;28.25;28.25;;;;;26.65;96.99;100669.91;5069379;28;45536;-66
2022/06/23 02:41:04;;;;;;;;;31.75;31.00;;;;;26.58;98.21;100675.66;5073114;27;45365;-66
2022/06/23 02:43:37;;;;;;;;;36.75;32.00;;;;;26.45;97.84;100670.41;5070075;28;45640;-64
2022/06/23 02:46:27;;;;;;;;;36.25;32.00;;;;;26.44;99.24;100673.47;5073097;28;46409;-66
2022/06/23 02:49:34;;;;;;;;;38.50;34.00;;;;;26.55;98.10;100680.88;5067421;28;45459;-66
2022/06/23 02:52:23;;;;;;;;;37.75;33.25;;;;;26.46;99.04;100669.31;5071568;28;45409;-66
2022/06/23 02:55:36;;;;;;;;;32.00;30.75;;;;;26.51;98.02;100676.94;5065920;28;45418;-66
2022/06/23 02:58:12;;;;;;;;;44.00;34.25;;;;;26.47;98.56;100672.97;5064669;28;46656;-66
2022/06/23 03:00:48;;;;;;;;;38.50;33.75;;;;;26.54;98.17;100673.63;5060897;27;45530;-66
2022/06/23 03:03:27;;;;;;;;;39.25;34.50;;;;;26.58;97.89;100672.03;5068907;28;45355;-66
2022/06/23 03:06:10;;;;;;;;;37.25;33.50;;;;;26.70;97.23;100675.56;5064321;28;45491;-66
2022/06/23 03:08:59;;;;;;;;;38.00;34.50;;;;;26.72;96.29;100670.56;5065165;28;47269;-64
2022/06/23 03:14:36;;;;;;;;;36.00;33.25;;;;;26.87;93.81;100684.72;5061938;28;45215;-66
2022/06/23 03:17:24;;;;;;;;;32.00;29.50;;;;;27.16;92.54;100676.22;5073411;28;45452;-66
2022/06/23 03:20:16;;;;;;;;;33.50;32.50;;;;;27.03;93.12;100683.03;5065283;28;46564;-66
2022/06/23 03:23:13;;;;;;;;;38.50;33.00;;;;;26.72;96.07;100685.34;5073715;28;45409;-66
2022/06/23 03:25:55;;;;;;;;;36.00;31.75;;;;;26.69;96.07;100685.00;5070145;28;45422;-66
2022/06/23 03:28:40;;;;;;;;;34.75;32.50;;;;;26.62;97.66;100673.19;5072109;28;45402;-65
2022/06/23 03:31:31;;;;;;;;;21.75;21.50;;;;;26.67;96.01;100684.41;5067865;28;46164;-65
2022/06/23 03:34:19;;;;;;;;;20.67;18.33;;;;;26.85;95.22;100686.91;5059726;28;45303;-67
2022/06/23 03:36:52;;;;;;;;;13.00;11.33;;;;;26.78;94.54;100689.06;5074211;28;45382;-65
2022/06/23 03:42:46;;;;;;;;;10.33;8.67;;;;;26.83;93.61;100697.47;5063396;28;45844;-66
2022/06/23 03:45:30;;;;;;;;;10.00;8.67;;;;;26.84;92.19;100696.38;5066789;28;45365;-66
2022/06/23 03:48:08;;;;;;;;;14.67;13.00;;;;;26.57;92.34;100703.78;5061425;28;45234;-66
2022/06/23 03:50:38;;;;;;;;;10.33;8.00;;;;;26.32;91.78;100710.63;5080245;27;45700;-65
2022/06/23 03:53:18;;;;;;;;;5.33;5.33;;;;;26.54;91.37;100715.41;5072370;28;45469;-65
2022/06/23 03:55:54;;;;;;;;;6.67;5.00;;;;;26.59;90.03;100709.94;5059130;28;45442;-65
2022/06/23 03:58:24;;;;;;;;;9.67;5.00;;;;;26.66;89.14;100721.75;5069566;27;45238;-66
2022/06/23 04:01:08;;;;;;;;;5.67;4.33;;;;;26.75;89.99;100721.06;5069371;27;45531;-65
2022/06/23 04:03:54;;;;;;;;;4.00;4.00;;;;;26.64;88.37;100726.75;5064595;28;45608;-65
2022/06/23 04:06:41;;;;;;;;;4.33;4.33;;;;;26.60;88.40;100728.34;5071725;28;45583;-65
2022/06/23 04:09:20;;;;;;;;;6.33;5.00;;;;;26.69;87.19;100736.03;5054979;28;45382;-65
2022/06/23 04:11:54;;;;;;;;;4.00;4.00;;;;;26.65;87.58;100728.44;5069854;28;45521;-66
2022/06/23 04:14:29;;;;;;;;;3.00;3.00;;;;;26.63;87.06;100736.19;5066997;27;45270;-65
2022/06/23 04:17:23;;;;;;;;;6.00;4.33;;;;;26.61;87.34;100735.59;5072496;28;45424;-65
2022/06/23 04:20:15;;;;;;;;;4.00;3.00;;;;;26.84;85.79;100734.56;5060263;28;45961;-65
2022/06/23 04:22:58;;;;;;;;;5.00;4.50;;;;;26.94;85.33;100749.53;5073299;28;45278;-67
2022/06/23 04:25:58;;;;;;;;;7.67;7.00;;;;;26.82;85.59;100745.13;5061866;28;47007;-66
2022/06/23 04:28:31;;;;;;;;;9.00;5.00;;;;;26.93;85.73;100745.06;5058918;28;46554;-66
2022/06/23 04:31:00;;;;;;;;;8.33;5.00;;;;;26.59;85.17;100743.38;5064203;28;45337;-66
2022/06/23 04:33:27;;;;;;;;;4.00;4.00;;;;;26.60;84.87;100764.56;5065033;28;45335;-66
2022/06/23 04:36:00;;;;;;;;;6.00;5.00;;;;;26.11;85.18;100760.59;5069748;28;46190;-66
2022/06/23 04:38:50;;;;;;;;;2.33;2.33;;;;;26.04;86.59;100763.56;5068735;27;45465;-66
2022/06/23 04:41:34;;;;;;;;;6.00;5.00;;;;;26.02;86.69;100746.25;5072146;28;45241;-66
2022/06/23 04:44:12;;;;;;;;;4.00;4.00;;;;;26.26;85.86;100756.19;5071583;27;45329;-66
2022/06/23 04:46:50;;;;;;;;;5.00;4.67;;;;;26.16;87.32;100761.53;5073099;28;45586;-66
2022/06/23 04:49:40;;;;;;;;;5.33;3.33;;;;;26.04;86.28;100754.34;5063852;28;45425;-66
2022/06/23 04:52:14;;;;;;;;;4.00;4.00;;;;;26.19;85.58;100757.41;5062373;28;45270;-66
2022/06/23 04:55:04;;;;;;;;;7.00;7.00;;;;;26.19;85.34;100755.47;5063581;28;45345;-66
2022/06/23 04:57:48;;;;;;;;;3.67;3.67;;;;;26.41;84.26;100763.13;5064977;28;46207;-66
2022/06/23 05:00:27;;;;;;;;;5.33;4.67;;;;;26.42;84.07;100756.47;5064242;27;45504;-67
2022/06/23 05:02:58;;;;;;;;;5.00;4.33;;;;;26.35;84.28;100776.97;5054977;27;45354;-66
2022/06/23 05:05:36;;;;;;;;;7.00;5.67;;;;;26.23;85.43;100770.59;5068495;28;45423;-66
2022/06/23 05:08:13;;;;;;;;;6.67;6.00;;;;;26.47;84.68;100764.91;5058186;28;45408;-66
2022/06/23 05:10:48;;;;;;;;;9.00;5.00;;;;;26.51;84.99;100763.31;5064919;27;46101;-66
2022/06/23 05:13:29;;;;;;;;;7.33;6.67;;;;;26.41;84.07;100763.97;5065630;27;45482;-66
2022/06/23 05:16:30;;;;;;;;;7.33;4.33;;;;;26.53;82.93;100773.09;5062166;28;45751;-66
2022/06/23 05:19:00;;;;;;;;;8.00;5.00;;;;;26.65;82.99;100775.81;5062157;28;45414;-66
2022/06/23 05:21:42;;;;;;;;;6.67;5.67;;;;;26.62;82.38;100776.31;5064754;28;45609;-66
2022/06/23 05:24:21;;;;;;;;;8.00;3.67;;;;;26.77;81.53;100770.13;5060827;28;45444;-66
2022/06/23 05:26:58;;;;;;;;;6.00;4.33;;;;;26.87;81.15;100776.72;5068173;28;45297;-66
2022/06/23 05:29:45;;;;;;;;;5.67;5.67;;;;;26.81;81.99;100774.97;5064119;27;46725;-66
2022/06/23 05:32:36;;;;;;;;;7.33;4.67;;;;;26.75;82.13;100781.53;5061387;28;45180;-66
2022/06/23 05:35:16;;;;;;;;;7.00;6.67;;;;;26.71;81.86;100786.78;5064565;28;45391;-66
2022/06/23 05:37:51;;;;;;;;;11.00;8.00;;;;;26.72;81.29;100784.84;5071001;28;45319;-67
2022/06/23 05:40:47;;;;;;;;;4.00;4.00;;;;;26.75;81.26;100792.69;5078633;27;46892;-66
2022/06/23 05:43:14;;;;;;;;;5.00;4.67;;;;;26.67;81.25;100773.59;5057717;28;45332;-67
2022/06/23 05:45:47;;;;;;;;;5.67;5.67;;;;;26.99;80.29;100774.72;5065957;28;45414;-67
2022/06/23 05:48:28;;;;;;;;;4.67;4.67;;;;;27.09;79.07;100772.09;5068145;27;45456;-66
2022/06/23 05:51:01;;;;;;;;;6.00;4.33;;;;;27.18;77.09;100777.22;5069436;27;46652;-67
2022/06/23 05:53:33;;;;;;;;;7.00;5.00;;;;;26.85;76.08;100758.56;5069615;27;45422;-67
2022/06/23 05:56:08;;;;;;;;;7.00;5.00;;;;;27.30;74.98;100773.22;5065781;28;45368;-65
2022/06/23 05:59:00;;;;;;;;;3.33;3.33;;;;;27.61;73.55;100774.50;5064969;28;45538;-65
2022/06/23 06:01:38;;;;;;;;;6.00;6.00;;;;;27.65;72.36;100763.63;5060631;28;45460;-66
2022/06/23 06:04:25;;;;;;;;;5.67;5.00;;;;;27.69;71.06;100767.63;5055252;28;45334;-67
2022/06/23 06:06:50;;;;;;;;;1.00;1.00;;;;;27.60;71.10;100761.63;5064584;28;45566;-67
2022/06/23 06:09:35;;;;;;;;;6.00;6.00;;;;;27.78;70.25;100760.44;5064825;27;45277;-65
2022/06/23 06:12:13;;;;;;;;;9.00;7.00;;;;;28.24;67.45;100750.63;5067903;28;46523;-67
2022/06/23 06:14:46;;;;;;;;;5.33;5.33;;;;;28.14;67.63;100745.75;5063800;27;45627;-67
2022/06/23 06:17:19;;;;;;;;;8.00;6.33;;;;;28.22;67.20;100758.44;5067990;28;45397;-67
2022/06/23 06:19:46;;;;;;;;;2.67;1.33;;;;;28.24;67.47;100757.06;5064210;27;45354;-67
2022/06/23 06:22:50;;;;;;;;;8.67;8.00;;;;;28.39;66.02;100756.38;5067785;28;48929;-67
2022/06/23 06:25:29;;;;;;;;;5.33;5.00;;;;;28.61;65.39;100754.31;5053262;28;45391;-66
2022/06/23 06:28:01;;;;;;;;;6.67;5.33;;;;;28.76;63.01;100748.03;5067464;28;45370;-68
2022/06/23 06:30:34;;;;;;;;;8.00;6.67;;;;;28.37;62.36;100743.75;5065582;28;45424;-68
2022/06/23 06:33:00;;;;;;;;;7.00;7.00;;;;;28.69;62.26;100758.56;5058427;28;47119;-66
2022/06/23 06:35:43;;;;;;;;;8.00;6.67;;;;;28.69;61.24;100769.75;5063982;28;45412;-67
2022/06/23 06:38:13;;;;;;;;;6.00;6.00;;;;;28.73;60.69;100770.06;5058971;28;45341;-69
2022/06/23 06:40:43;;;;;;;;;7.00;7.00;;;;;29.09;59.75;100758.03;5066429;28;45168;-68
2022/06/23 06:43:15;;;;;;;;;8.33;8.00;;;;;28.97;59.70;100763.84;5068192;27;46670;-66
2022/06/23 06:45:40;;;;;;;;;12.33;10.00;;;;;28.77;61.63;100752.53;5062873;28;45952;-66
2022/06/23 06:48:14;;;;;;;;;10.67;9.67;;;;;29.07;60.14;100751.88;5067040;28;45353;-68
2022/06/23 06:50:50;;;;;;;;;6.33;6.33;;;;;29.19;59.52;100760.06;5064770;28;45180;-68
2022/06/23 06:53:39;;;;;;;;;7.33;6.67;;;;;29.29;58.51;100760.97;5066366;27;45344;-67
2022/06/23 06:56:17;;;;;;;;;6.00;5.00;;;;;29.41;57.66;100767.22;5061689;28;45444;-68
2022/06/23 06:58:53;;;;;;;;;8.00;6.33;;;;;29.46;57.84;100762.75;5064625;28;45277;-68
2022/06/23 07:01:24;;;;;;;;;7.00;7.00;;;;;29.48;58.27;100766.13;5070081;27;45674;-67
2022/06/23 07:03:52;;;;;;;;;7.00;7.00;;;;;29.49;57.59;100773.41;5059756;28;46379;-67
2022/06/23 07:06:32;;;;;;;;;8.00;8.00;;;;;29.46;57.34;100774.78;5067057;28;45168;-67
2022/06/23 07:09:41;;;;;;;;;5.67;5.67;;;;;29.52;56.59;100776.47;5063955;28;45239;-67
2022/06/23 07:12:14;;;;;;;;;9.00;8.00;;;;;29.36;56.50;100769.16;5070765;27;45607;-66
2022/06/23 07:14:53;;;;;;;;;7.67;7.67;;;;;29.18;57.60;100766.75;5057268;28;45496;-68
2022/06/23 07:17:37;;;;;;;;;9.33;9.33;;;;;29.41;56.33;100761.63;5070740;28;45318;-68
2022/06/23 07:20:28;;;;;;;;;7.33;7.33;;;;;29.42;55.78;100757.69;5066075;27;47226;-68
2022/06/23 07:23:10;;;;;;;;;10.33;9.67;;;;;29.55;55.76;100756.34;5071721;28;45369;-68
2022/06/23 07:25:41;;;;;;;;;8.33;7.00;;;;;29.37;55.01;100771.66;5065790;28;46100;-67
2022/06/23 07:28:16;;;;;;;;;6.33;5.67;;;;;29.61;55.93;100776.81;5067480;28;45351;-68
2022/06/23 07:30:52;;;;;;;;;9.67;9.00;;;;;29.42;53.69;100790.44;5068980;28;45299;-67
2022/06/23 07:33:24;;;;;;;;;6.00;6.00;;;;;29.24;53.81;100788.91;5070172;27;45586;-67
2022/06/23 07:35:58;;;;;;;;;10.33;7.33;;;;;29.34;52.12;100791.81;5067027;28;47023;-67
2022/06/23 07:38:34;;;;;;;;;6.67;6.67;;;;;29.25;52.21;100787.78;5070913;27;45356;-67
2022/06/23 07:41:07;;;;;;;;;9.00;6.67;;;;;28.64;54.75;100789.25;5070456;28;45271;-68
2022/06/23 07:44:03;;;;;;;;;5.33;5.33;;;;;29.29;53.63;100793.72;5069290;27;45375;-68
2022/06/23 07:46:30;;;;;;;;;7.33;7.00;;;;;29.32;52.33;100785.59;5074903;28;45737;-67
2022/06/23 07:48:56;;;;;;;;;7.33;7.33;;;;;29.03;51.72;100792.69;5064178;27;45419;-68
2022/06/23 07:51:22;;;;;;;;;6.00;6.00;;;;;29.26;52.68;100791.44;5073143;28;45230;-67
2022/06/23 07:53:50;;;;;;;;;7.00;7.00;;;;;29.46;51.54;100801.94;5066581;27;45346;-68
2022/06/23 07:56:19;;;;;;;;;7.67;7.67;;;;;29.64;51.49;100793.06;5070770;28;45464;-67
2022/06/23 07:58:48;;;;;;;;;7.00;7.00;;;;;29.76;50.81;100788.06;5066090;27;45411;-67
2022/06/23 08:01:23;;;;;;;;;7.33;7.33;;;;;29.49;51.28;100791.03;5071378;27;45483;-67
2022/06/23 08:03:59;;;;;;;;;7.00;7.00;;;;;29.58;50.75;100796.97;5063128;28;45479;-66
2022/06/23 08:06:26;;;;;;;;;7.33;7.33;;;;;29.61;50.61;100788.00;5071610;28;46073;-68
2022/06/23 08:09:00;;;;;;;;;7.67;7.00;;;;;29.20;51.18;100793.38;5067385;27;45429;-67
2022/06/23 08:14:33;;;;;;;;;4.67;4.67;;;;;29.21;49.45;100792.25;5061192;28;45483;-67
2022/06/23 08:17:04;;;;;;;;;8.00;8.00;;;;;29.59;50.15;100790.25;5072050;28;48083;-67
2022/06/23 08:19:51;;;;;;;;;5.00;5.00;;;;;29.12;51.17;100795.81;5062769;28;46006;-68
2022/06/23 08:22:32;;;;;;;;;8.00;8.00;;;;;29.68;50.62;100791.41;5069607;27;45434;-67
2022/06/23 08:25:01;;;;;;;;;7.00;6.00;;;;;29.87;48.91;100792.59;5053492;28;45224;-67
2022/06/23 08:27:30;;;;;;;;;5.67;5.67;;;;;30.10;48.38;100796.91;5066804;28;46847;-67
2022/06/23 08:29:59;;;;;;;;;6.33;6.33;;;;;30.19;48.50;100784.88;5050467;28;45379;-67
2022/06/23 08:32:25;;;;;;;;;7.00;6.00;;;;;30.52;47.65;100793.91;5072818;28;45313;-67
2022/06/23 08:35:07;;;;;;;;;6.67;5.00;;;;;30.28;47.39;100792.72;5062625;28;45385;-67
2022/06/23 08:37:49;;;;;;;;;9.00;8.00;;;;;30.69;48.81;100788.84;5070358;28;45543;-67
2022/06/23 08:40:27;;;;;;;;;8.33;8.33;;;;;30.83;46.98;100798.38;5065942;28;45309;-67
2022/06/23 08:43:07;;;;;;;;;10.33;7.33;;;;;31.13;46.08;100783.50;5066566;28;45341;-67
2022/06/23 08:45:40;;;;;;;;;14.67;14.67;;;;;31.20;46.89;100786.88;5066392;28;45349;-67
2022/06/23 08:48:11;;;;;;;;;6.67;6.67;;;;;31.20;45.54;100795.28;5055269;28;45348;-68
2022/06/23 08:50:44;;;;;;;;;10.00;7.67;;;;;30.07;48.05;100792.69;5065843;27;45646;-67
2022/06/23 08:53:42;;;;;;;;;8.67;8.67;;;;;30.00;49.02;100794.06;5068708;27;45334;-68
2022/06/23 08:56:15;;;;;;;;;9.00;8.00;;;;;30.66;47.71;100795.03;5070920;28;45376;-66
2022/06/23 08:58:49;;;;;;;;;7.00;7.00;;;;;30.73;46.93;100784.38;5067007;27;45596;-66
2022/06/23 09:01:29;;;;;;;;;9.00;7.00;;;;;30.83;46.14;100791.97;5070717;28;45312;-66
2022/06/23 09:04:12;;;;;;;;;10.00;10.00;;;;;31.04;46.80;100798.41;5062069;28;45266;-66
2022/06/23 09:06:53;;;;;;;;;7.67;7.67;;;;;31.08;44.55;100791.09;5064708;28;45471;-66
2022/06/23 09:09:41;;;;;;;;;6.00;6.00;;;;;31.14;45.46;100789.97;5062625;28;46294;-66
2022/06/23 09:12:35;;;;;;;;;7.00;7.00;;;;;31.49;44.28;100781.44;5070093;28;45425;-66
2022/06/23 09:15:13;;;;;;;;;10.00;8.00;;;;;31.69;44.09;100774.97;5060590;28;45477;-67
2022/06/23 09:17:56;;;;;;;;;10.67;7.67;;;;;31.90;42.83;100779.34;5072946;28;45659;-67
2022/06/23 09:20:51;;;;;;;;;8.67;8.00;;;;;31.95;43.46;100784.09;5055819;28;46167;-67
2022/06/23 09:23:50;;;;;;;;;7.00;7.00;;;;;32.39;42.83;100782.16;5059540;28;45219;-67
2022/06/23 09:26:40;;;;;;;;;13.67;9.33;;;;;31.71;42.10;100796.00;5065225;28;45432;-67
2022/06/23 09:29:32;;;;;;;;;7.67;7.67;;;;;31.93;42.16;100787.19;5057411;28;45390;-67
2022/06/23 09:32:05;;;;;;;;;6.33;6.33;;;;;32.35;41.09;100783.88;5063650;28;46770;-67
2022/06/23 09:34:33;;;;;;;;;6.00;6.00;;;;;32.57;40.59;100785.41;5062516;27;45236;-66
2022/06/23 09:37:36;;;;;;;;;8.33;7.00;;;;;32.43;40.30;100779.59;5076960;28;45306;-66
2022/06/23 09:40:04;;;;;;;;;6.00;6.00;;;;;32.22;41.21;100778.88;5063141;28;46094;-66
2022/06/23 09:43:00;;;;;;;;;5.67;5.00;;;;;32.79;40.62;100774.56;5072561;27;45366;-67
2022/06/23 09:45:29;;;;;;;;;8.67;8.67;;;;;33.21;38.76;100780.34;5064624;28;45379;-68
2022/06/23 09:47:54;;;;;;;;;4.00;4.00;;;;;33.02;38.67;100770.13;5071236;28;45390;-66
2022/06/23 09:50:37;;;;;;;;;6.33;6.33;;;;;32.93;39.73;100767.09;5064402;28;45295;-66
2022/06/23 09:53:13;;;;;;;;;7.33;6.00;;;;;33.23;38.89;100758.38;5053888;28;45295;-67
2022/06/23 09:56:06;;;;;;;;;7.67;6.00;;;;;32.99;37.90;100763.09;5065311;28;45396;-67
2022/06/23 09:59:03;;;;;;;;;6.67;6.67;;;;;32.24;39.69;100771.00;5068642;27;45199;-68
2022/06/23 10:01:44;;;;;;;;;6.67;5.00;;;;;32.65;39.31;100770.72;5067579;27;45334;-67
2022/06/23 10:04:15;;;;;;;;;9.00;7.33;;;;;33.07;38.38;100770.88;5059273;28;46590;-67
2022/06/23 10:07:12;;;;;;;;;6.00;6.00;;;;;33.47;37.41;100771.59;5072905;28;45303;-66
2022/06/23 10:09:50;;;;;;;;;8.00;8.00;;;;;33.36;38.39;100768.06;5057989;28;45465;-66
2022/06/23 10:12:43;;;;;;;;;7.00;7.00;;;;;33.55;38.81;100773.75;5069452;28;45497;-67
2022/06/23 10:15:20;;;;;;;;;8.33;8.00;;;;;33.65;37.53;100773.63;5066098;28;47098;-67
2022/06/23 10:18:04;;;;;;;;;10.33;10.33;;;;;34.10;36.98;100769.38;5071850;28;45314;-67
2022/06/23 10:20:52;;;;;;;;;9.67;6.33;;;;;33.99;36.16;100771.50;5072200;28;45870;-66
2022/06/23 10:23:44;;;;;;;;;9.00;9.00;;;;;33.65;36.31;100768.00;5071416;28;45329;-65
2022/06/23 10:26:28;;;;;;;;;9.67;8.67;;;;;32.62;38.59;100769.31;5066614;28;45366;-67
2022/06/23 10:29:17;;;;;;;;;11.00;9.00;;;;;32.42;39.31;100770.31;5068777;28;45269;-66
2022/06/23 10:32:00;;;;;;;;;7.00;7.00;;;;;32.61;39.10;100769.59;5073976;28;45310;-65
2022/06/23 10:34:44;;;;;;;;;8.33;8.33;;;;;33.65;38.68;100773.63;5063908;28;45373;-67
2022/06/23 10:37:27;;;;;;;;;9.00;8.00;;;;;34.27;37.78;100768.84;5075550;28;45476;-66
2022/06/23 10:40:17;;;;;;;;;10.33;8.33;;;;;34.62;36.80;100756.16;5063135;28;45313;-67
2022/06/23 10:42:54;;;;;;;;;7.33;7.33;;;;;34.95;34.11;100757.00;5068292;28;45237;-67
2022/06/23 10:45:56;;;;;;;;;11.33;10.33;;;;;34.50;35.22;100758.59;5064447;28;45325;-68
2022/06/23 10:48:46;;;;;;;;;7.00;7.00;;;;;33.82;34.85;100745.81;5074206;27;46990;-67
2022/06/23 10:51:45;;;;;;;;;5.67;5.67;;;;;33.84;36.21;100753.94;5066947;28;45435;-66
2022/06/23 10:54:32;;;;;;;;;8.00;8.00;;;;;33.89;36.46;100749.09;5053830;28;45493;-67
2022/06/23 10:57:25;;;;;;;;;9.00;9.00;;;;;34.72;34.58;100756.84;5070870;28;45388;-67
2022/06/23 11:00:19;;;;;;;;;8.00;8.00;;;;;35.05;34.21;100751.19;5065533;28;45660;-67
2022/06/23 11:03:06;;;;;;;;;7.67;7.00;;;;;35.63;34.11;100748.63;5059362;28;45335;-68
2022/06/23 11:05:40;;;;;;;;;10.67;9.00;;;;;35.41;32.24;100752.19;5066880;28;45389;-68
2022/06/23 11:08:13;;;;;;;;;11.00;10.33;;;;;35.47;34.16;100745.25;5062997;28;45553;-68
2022/06/23 11:10:53;;;;;;;;;29.00;27.50;;;;;36.23;31.99;100751.28;5067339;27;46182;-68
2022/06/23 11:13:35;;;;;;;;;18.75;18.75;;;;;37.04;31.05;100740.69;5068205;28;45408;-67
2022/06/23 11:16:13;;;;;;;;;10.00;10.00;;;;;36.62;30.88;100740.06;5068670;28;45427;-67
2022/06/23 11:19:00;;;;;;;;;9.00;9.00;;;;;35.73;32.37;100744.72;5071308;28;45286;-67
2022/06/23 11:21:42;;;;;;;;;7.67;7.67;;;;;35.67;31.49;100740.31;5068422;27;45435;-68
2022/06/23 11:24:32;;;;;;;;;12.33;11.33;;;;;35.33;32.53;100735.97;5059223;28;45245;-67
2022/06/23 11:27:13;;;;;;;;;15.33;14.33;;;;;35.46;31.55;100737.94;5061038;28;45484;-67
2022/06/23 11:29:57;;;;;;;;;10.33;10.33;;;;;34.99;31.87;100733.50;5063877;28;45457;-66
2022/06/23 11:32:50;;;;;;;;;6.00;6.00;;;;;34.84;32.35;100732.94;5075860;28;45399;-68
2022/06/23 11:35:27;;;;;;;;;65.00;50.75;;;;;35.81;30.53;100725.03;5054209;28;45342;-68
2022/06/23 11:38:30;;;;;;;;;45.00;37.75;;;;;36.31;30.63;100722.22;5067695;28;45413;-69
2022/06/23 11:41:32;;;;;;;;;8.33;8.33;;;;;36.52;29.05;100722.53;5070135;28;45473;-68
2022/06/23 11:44:17;;;;;;;;;15.67;14.33;;;;;36.88;28.97;100720.47;5065412;28;45585;-68
2022/06/23 11:47:01;;;;;;;;;14.67;13.00;;;;;36.73;28.88;100705.88;5074881;28;45405;-68
2022/06/23 11:49:35;;;;;;;;;7.67;7.67;;;;;36.77;28.82;100719.03;5065094;28;45298;-68
2022/06/23 11:52:28;;;;;;;;;6.00;5.00;;;;;36.26;29.78;100711.84;5072836;28;45238;-67
2022/06/23 11:54:59;;;;;;;;;7.33;6.67;;;;;36.74;28.68;100714.06;5068234;28;46567;-68
2022/06/23 11:57:38;;;;;;;;;7.33;6.33;;;;;37.30;27.66;100710.50;5074997;28;45267;-68
2022/06/23 12:00:11;;;;;;;;;6.00;6.00;;;;;37.98;26.73;100713.84;5070368;27;45451;-68
2022/06/23 12:02:50;;;;;;;;;6.00;5.00;;;;;38.55;26.04;100704.03;5068780;28;45234;-68
2022/06/23 12:05:34;;;;;;;;;7.00;7.00;;;;;37.37;27.02;100691.03;5065747;28;45448;-68
2022/06/23 12:08:27;;;;;;;;;4.00;4.00;;;;;36.56;29.06;100689.56;5071273;28;45432;-68
2022/06/23 12:10:53;;;;;;;;;7.00;7.00;;;;;37.09;27.71;100685.88;5068759;27;45392;-68
2022/06/23 12:13:23;;;;;;;;;8.00;8.00;;;;;37.32;28.18;100688.34;5067354;28;45414;-67
2022/06/23 12:15:50;;;;;;;;;8.67;8.00;;;;;37.42;27.63;100670.19;5065632;28;48444;-67
2022/06/23 12:18:24;;;;;;;;;7.33;7.33;;;;;37.22;28.31;100673.63;5069961;28;45432;-66
2022/06/23 12:21:14;;;;;;;;;7.00;7.00;;;;;37.71;26.99;100663.94;5068858;27;45414;-68
2022/06/23 12:23:58;;;;;;;;;4.00;4.00;;;;;37.93;27.95;100679.97;5068682;28;45280;-68